Impacts METAR Board
IDs:

KPWG - Mc Gregor Executive, TX, US

Updated at: 0500 UTC 19 Aug 2019
Potential Impact None Slight Moderate High
Time 18/17Z 18/18Z 18/19Z 18/20Z 18/21Z 18/22Z 18/23Z 19/00Z 19/01Z 19/02Z 19/03Z 19/04Z 19/05Z
Temp94 96 98 100 100 101 100 99 94 89 90 89 88
Dewpt73 72 71 70 68 64 66 66 66 67 69 73 73
Altim29.91 29.91 29.90 29.87 29.86 29.85 29.84 29.85 29.84 29.85 29.87 29.90 29.92
VIS6 10 10 10 10 10 10 10 10 10 10 10 10
CIG-- -- -- -- -- -- -- -- -- -- -- -- --
CoverFEWFEWCLRCLRCLRCLRCLRCLRCLRCLRCLRCLRCLR
FltCatVFRVFRVFRVFRVFRVFRVFRVFRVFRVFRVFRVFRVFR
WXHZ------------------------
WDir1502001601501701700160170150150150170
WSpd13 12 11 11 13 10 5 8 6 6 11 12 11
WGst19 17 16 18 18 14 -- -- -- -- -- -- 16
Raw hourly METARs
KPWG 181656Z AUTO 15013G19KT 6SM HZ FEW037 34/23 A2991 RMK AO2 SLP120 T03440228
KPWG 181756Z AUTO 20012G17KT 10SM FEW049 36/22 A2991 RMK AO2 SLP119 T03560222 10356 20261 50001
KPWG 181856Z AUTO 16011G16KT 10SM CLR 37/22 A2990 RMK AO2 SLP114 T03670217
KPWG 181956Z AUTO 15011G18KT 10SM CLR 38/21 A2987 RMK AO2 SLP105 T03780211
KPWG 182056Z AUTO 17013G18KT 10SM CLR 38/20 A2986 RMK AO2 SLP101 T03780200 56018
KPWG 182156Z AUTO 17010G14KT 10SM CLR 38/18 A2985 RMK AO2 SLP099 T03830178
KPWG 182256Z AUTO VRB05KT 10SM CLR 38/19 A2984 RMK AO2 SLP098 T03780189
KPWG 182356Z AUTO 16008KT 10SM CLR 37/19 A2985 RMK AO2 SLP096 T03720189 10389 20356 55003
KPWG 190056Z AUTO 17006KT 10SM CLR 34/19 A2984 RMK AO2 SLP094 T03440189
KPWG 190156Z AUTO 15006KT 10SM CLR 32/19 A2985 RMK AO2 SLP097 T03170194
KPWG 190256Z AUTO 15011KT 10SM CLR 32/21 A2987 RMK AO2 SLP104 T03220206 53008
KPWG 190356Z AUTO 15012KT 10SM CLR 32/23 A2990 RMK AO2 SLP118 T03170228
KPWG 190456Z AUTO 17011G16KT 10SM CLR 31/23 A2992 RMK AO2 SLP122 T03110228



Page loaded:  05:25 UTC  |   10:25 PM Pacific  |   11:25 PM Mountain  |   12:25 AM Central  |   01:25 AM Eastern

 

ADVISORIES

FORECASTS

FORECASTS

OBSERVATIONS

USER TOOLS

ABOUT US